Time;durP1;ratioP1;P1;durP2;ratioP2;P2;SDS_P1;SDS_P2;PMS_P1;PMS_P2;Temp;Humidity;BMP_temperature;BMP_pressure;BME280_temperature;BME280_humidity;BME280_pressure;Samples;Min_cycle;Max_cycle;Signal;HPM_P1;HPM_P2
2023/10/23 00:00:17;;;;;;;28.08;16.77;;;;;;;;;;5054726;28;20551;-78
2023/10/23 00:02:43;;;;;;;31.63;18.27;;;;;;;;;;5081232;28;20016;-78
2023/10/23 00:05:10;;;;;;;31.42;18.58;;;;;;;;;;5090648;28;20039;-79
2023/10/23 00:07:36;;;;;;;32.35;18.50;;;;;;;;;;5071976;28;20048;-79
2023/10/23 00:10:03;;;;;;;32.80;16.60;;;;;;;;;;5072104;28;20949;-79
2023/10/23 00:12:29;;;;;;;29.00;16.50;;;;;;;;;;5089958;28;21672;-78
2023/10/23 00:14:55;;;;;;;27.08;15.85;;;;;;;;;;5073332;28;20039;-78
2023/10/23 00:17:21;;;;;;;27.60;15.52;;;;;;;;;;5065669;28;20033;-78
2023/10/23 00:19:47;;;;;;;36.50;16.48;;;;;;;;;;5073631;28;20057;-79
2023/10/23 00:22:14;;;;;;;26.95;16.70;;;;;;;;;;5067168;28;20066;-78
2023/10/23 00:24:40;;;;;;;27.25;17.38;;;;;;;;;;5074403;28;20113;-78
2023/10/23 00:27:06;;;;;;;30.70;16.90;;;;;;;;;;5060645;28;20452;-78
2023/10/23 00:29:32;;;;;;;34.20;17.83;;;;;;;;;;5072241;28;20039;-78
2023/10/23 00:31:58;;;;;;;30.27;18.02;;;;;;;;;;5068015;28;20135;-80
2023/10/23 00:34:24;;;;;;;28.98;17.90;;;;;;;;;;5079250;28;20042;-79
2023/10/23 00:36:50;;;;;;;33.63;19.20;;;;;;;;;;5063639;28;20433;-77
2023/10/23 00:39:17;;;;;;;31.45;20.35;;;;;;;;;;5077010;28;20033;-77
2023/10/23 00:41:44;;;;;;;35.92;20.35;;;;;;;;;;5050797;28;20024;-78
2023/10/23 00:44:10;;;;;;;29.70;18.35;;;;;;;;;;5070715;28;20032;-78
2023/10/23 00:46:37;;;;;;;33.00;19.58;;;;;;;;;;5043609;28;20024;-79
2023/10/23 00:49:04;;;;;;;32.15;19.30;;;;;;;;;;5056311;28;20442;-79
2023/10/23 00:51:30;;;;;;;31.73;19.30;;;;;;;;;;5070221;28;20043;-80
2023/10/23 00:53:57;;;;;;;48.15;25.55;;;;;;;;;;5086730;28;20036;-79
2023/10/23 00:56:23;;;;;;;37.92;22.08;;;;;;;;;;5065467;28;20032;-78
2023/10/23 00:58:50;;;;;;;50.95;26.70;;;;;;;;;;5069841;28;20035;-79
2023/10/23 01:01:16;;;;;;;49.92;26.95;;;;;;;;;;5087378;28;20036;-79
2023/10/23 01:03:43;;;;;;;42.00;24.77;;;;;;;;;;5045908;28;20440;-79
2023/10/23 01:06:09;;;;;;;56.53;30.10;;;;;;;;;;5069510;28;20416;-79
2023/10/23 01:08:35;;;;;;;67.95;31.33;;;;;;;;;;5089256;28;20121;-79
2023/10/23 01:11:01;;;;;;;58.33;29.63;;;;;;;;;;5089696;28;20028;-79
2023/10/23 01:13:28;;;;;;;49.58;27.23;;;;;;;;;;5071209;28;20105;-79
2023/10/23 01:15:54;;;;;;;47.58;25.08;;;;;;;;;;5073140;28;20032;-79
2023/10/23 01:18:21;;;;;;;38.63;22.58;;;;;;;;;;5088424;28;20027;-79
2023/10/23 01:20:48;;;;;;;32.60;20.10;;;;;;;;;;5068321;28;20138;-79
2023/10/23 01:23:14;;;;;;;37.22;22.35;;;;;;;;;;5083448;28;20055;-79
2023/10/23 01:25:40;;;;;;;32.55;20.50;;;;;;;;;;5075960;28;20474;-78
2023/10/23 01:28:06;;;;;;;32.88;20.30;;;;;;;;;;5063657;28;20043;-78
2023/10/23 01:30:35;;;;;;;32.33;19.65;;;;;;;;;;5054254;28;20015;-78
2023/10/23 01:33:01;;;;;;;44.95;25.45;;;;;;;;;;5082528;28;20052;-77
2023/10/23 01:35:27;;;;;;;88.35;41.58;;;;;;;;;;5072880;28;20040;-78
2023/10/23 01:37:54;;;;;;;86.45;40.03;;;;;;;;;;5068462;28;20443;-79
2023/10/23 01:40:20;;;;;;;100.85;44.88;;;;;;;;;;5071902;28;20400;-78
2023/10/23 01:42:47;;;;;;;101.90;46.92;;;;;;;;;;5088219;28;20032;-79
2023/10/23 01:45:13;;;;;;;87.75;45.00;;;;;;;;;;5072433;28;20107;-77
2023/10/23 01:47:39;;;;;;;85.40;43.40;;;;;;;;;;5050776;28;20053;-77
2023/10/23 01:50:05;;;;;;;80.18;40.50;;;;;;;;;;5072580;28;20036;-79
2023/10/23 01:52:32;;;;;;;80.72;40.85;;;;;;;;;;5052144;28;20397;-78
2023/10/23 01:55:00;;;;;;;80.45;41.38;;;;;;;;;;5052118;28;20364;-78
2023/10/23 01:57:27;;;;;;;77.35;39.15;;;;;;;;;;5050749;28;20040;-78
2023/10/23 01:59:54;;;;;;;71.93;36.95;;;;;;;;;;5070884;28;20035;-79
2023/10/23 02:02:20;;;;;;;48.85;26.65;;;;;;;;;;5063065;28;20090;-79
2023/10/23 02:04:46;;;;;;;46.20;25.52;;;;;;;;;;5072534;28;20386;-78
2023/10/23 02:07:12;;;;;;;38.72;22.30;;;;;;;;;;5087397;28;20051;-79
2023/10/23 02:09:38;;;;;;;42.22;22.17;;;;;;;;;;5085252;28;20024;-79
2023/10/23 02:12:09;;;;;;;145.60;25.60;;;;;;;;;;5063919;28;20061;-79
2023/10/23 02:14:35;;;;;;;205.02;28.02;;;;;;;;;;5071864;28;20043;-79
2023/10/23 02:17:03;;;;;;;191.40;26.10;;;;;;;;;;5070410;28;20076;-78
2023/10/23 02:19:30;;;;;;;157.23;26.83;;;;;;;;;;5071905;28;20629;-78
2023/10/23 02:21:56;;;;;;;97.57;25.55;;;;;;;;;;5082945;28;20050;-79
2023/10/23 02:24:22;;;;;;;58.65;24.58;;;;;;;;;;5077315;28;20409;-79
2023/10/23 02:26:49;;;;;;;70.82;27.48;;;;;;;;;;5080294;28;20467;-78
2023/10/23 02:29:15;;;;;;;79.45;29.02;;;;;;;;;;5040205;28;20086;-78
2023/10/23 02:31:41;;;;;;;70.95;29.80;;;;;;;;;;5086945;28;20133;-79
2023/10/23 02:34:07;;;;;;;58.78;28.35;;;;;;;;;;5089062;28;20032;-79
2023/10/23 02:36:34;;;;;;;135.07;32.45;;;;;;;;;;5070702;28;20036;-80
2023/10/23 02:39:00;;;;;;;69.05;31.23;;;;;;;;;;5069893;28;20138;-79
2023/10/23 02:41:29;;;;;;;52.67;30.13;;;;;;;;;;5065390;28;20036;-78
2023/10/23 02:43:55;;;;;;;57.03;29.42;;;;;;;;;;5060914;28;20070;-79
2023/10/23 02:46:22;;;;;;;82.50;30.70;;;;;;;;;;5035227;28;20456;-78
2023/10/23 02:48:48;;;;;;;104.55;32.05;;;;;;;;;;5070456;28;20084;-79
2023/10/23 02:51:15;;;;;;;169.80;33.15;;;;;;;;;;5050411;28;20032;-79
2023/10/23 02:53:41;;;;;;;139.98;31.92;;;;;;;;;;5049686;28;20081;-78
2023/10/23 02:56:11;;;;;;;231.32;37.03;;;;;;;;;;5079116;28;20422;-78
2023/10/23 02:58:37;;;;;;;346.35;41.15;;;;;;;;;;5066469;28;20408;-79
2023/10/23 03:01:03;;;;;;;196.75;39.38;;;;;;;;;;5069524;28;20417;-79
2023/10/23 03:03:29;;;;;;;407.20;47.45;;;;;;;;;;5088097;28;20401;-78
2023/10/23 03:05:56;;;;;;;390.27;47.60;;;;;;;;;;5082453;28;20040;-78
2023/10/23 03:08:22;;;;;;;313.30;41.55;;;;;;;;;;5066603;28;20060;-78
2023/10/23 03:10:48;;;;;;;404.75;47.97;;;;;;;;;;5049856;28;20112;-78
2023/10/23 03:13:14;;;;;;;339.05;42.33;;;;;;;;;;5068338;28;20038;-78
2023/10/23 03:15:40;;;;;;;371.92;46.05;;;;;;;;;;5070889;28;20032;-78
2023/10/23 03:18:06;;;;;;;251.85;41.13;;;;;;;;;;5070195;28;20435;-78
2023/10/23 03:20:34;;;;;;;264.77;40.83;;;;;;;;;;5088703;28;20059;-78
2023/10/23 03:23:00;;;;;;;130.05;36.03;;;;;;;;;;5050777;28;20119;-81
2023/10/23 03:25:26;;;;;;;184.13;37.78;;;;;;;;;;5052756;28;20036;-78
2023/10/23 03:27:52;;;;;;;113.88;36.10;;;;;;;;;;5087554;28;20028;-77
2023/10/23 03:30:18;;;;;;;256.45;42.75;;;;;;;;;;5058517;28;20024;-77
2023/10/23 03:32:45;;;;;;;193.50;43.10;;;;;;;;;;5063100;28;20040;-78
2023/10/23 03:35:11;;;;;;;105.43;38.53;;;;;;;;;;5055163;28;20040;-77
2023/10/23 03:37:37;;;;;;;127.25;41.08;;;;;;;;;;5051722;28;20047;-80
2023/10/23 03:40:03;;;;;;;119.72;39.70;;;;;;;;;;5073504;28;20450;-79
2023/10/23 03:42:29;;;;;;;164.68;41.58;;;;;;;;;;5069240;28;20048;-78
2023/10/23 03:44:57;;;;;;;133.50;41.10;;;;;;;;;;5041189;28;20036;-78
2023/10/23 03:47:23;;;;;;;106.82;36.40;;;;;;;;;;5091831;28;20115;-78
2023/10/23 03:49:50;;;;;;;137.23;37.50;;;;;;;;;;5085954;28;20456;-77
2023/10/23 03:52:16;;;;;;;138.38;39.33;;;;;;;;;;5068633;28;20024;-80
2023/10/23 03:54:43;;;;;;;177.50;41.33;;;;;;;;;;5088230;28;20028;-80
2023/10/23 03:57:09;;;;;;;222.25;44.13;;;;;;;;;;5065113;28;20057;-79
2023/10/23 03:59:35;;;;;;;165.13;43.50;;;;;;;;;;5060082;28;20044;-80
2023/10/23 04:02:01;;;;;;;255.25;44.17;;;;;;;;;;5085450;28;20039;-81
2023/10/23 04:04:27;;;;;;;306.40;48.53;;;;;;;;;;5093120;28;20032;-80
2023/10/23 04:06:53;;;;;;;289.33;46.45;;;;;;;;;;5051896;28;20057;-79
2023/10/23 04:09:20;;;;;;;361.20;48.88;;;;;;;;;;5072978;28;20029;-79
2023/10/23 04:11:46;;;;;;;229.88;47.13;;;;;;;;;;5075106;28;20041;-79
2023/10/23 04:14:12;;;;;;;223.90;47.30;;;;;;;;;;5088854;28;20062;-79
2023/10/23 04:16:39;;;;;;;172.43;47.25;;;;;;;;;;5090252;28;20049;-80
2023/10/23 04:19:05;;;;;;;118.15;45.25;;;;;;;;;;5074918;28;20036;-80
2023/10/23 04:21:31;;;;;;;190.35;51.47;;;;;;;;;;5050512;28;20059;-80
2023/10/23 04:23:57;;;;;;;153.30;50.15;;;;;;;;;;5074174;28;20043;-80
2023/10/23 04:26:23;;;;;;;195.30;53.80;;;;;;;;;;5073601;28;20044;-79
2023/10/23 04:28:49;;;;;;;279.02;58.78;;;;;;;;;;5064638;28;20028;-80
2023/10/23 04:31:15;;;;;;;179.98;53.13;;;;;;;;;;5085485;28;20151;-79
2023/10/23 04:33:41;;;;;;;184.52;53.70;;;;;;;;;;5077228;28;20632;-79
2023/10/23 04:36:08;;;;;;;244.10;56.30;;;;;;;;;;5066360;28;20075;-79
2023/10/23 04:38:34;;;;;;;486.77;70.32;;;;;;;;;;5073711;28;20041;-79
2023/10/23 04:41:00;;;;;;;432.15;67.03;;;;;;;;;;5075510;28;20484;-81
2023/10/23 04:43:26;;;;;;;315.55;56.40;;;;;;;;;;5056368;28;20036;-80
2023/10/23 04:45:53;;;;;;;277.33;58.47;;;;;;;;;;5091475;28;20439;-80
2023/10/23 04:48:19;;;;;;;199.23;57.03;;;;;;;;;;5072280;28;20420;-80
2023/10/23 04:50:45;;;;;;;251.95;61.03;;;;;;;;;;5090079;28;20443;-80
2023/10/23 04:53:12;;;;;;;308.98;61.47;;;;;;;;;;5088809;28;20035;-80
2023/10/23 04:55:39;;;;;;;281.27;61.75;;;;;;;;;;5091136;28;20028;-81
2023/10/23 04:58:06;;;;;;;324.95;66.78;;;;;;;;;;5091676;28;20505;-81
2023/10/23 05:00:34;;;;;;;367.60;72.07;;;;;;;;;;5074621;28;20032;-80
2023/10/23 05:03:01;;;;;;;282.55;62.92;;;;;;;;;;5056364;28;20024;-81
2023/10/23 05:05:27;;;;;;;537.50;76.57;;;;;;;;;;5074800;28;20036;-79
2023/10/23 05:07:53;;;;;;;483.83;71.75;;;;;;;;;;5074398;28;20063;-80
2023/10/23 05:10:19;;;;;;;300.55;61.15;;;;;;;;;;5073995;28;20405;-80
2023/10/23 05:12:47;;;;;;;434.50;69.30;;;;;;;;;;5058251;28;20035;-79
2023/10/23 05:15:13;;;;;;;457.00;69.50;;;;;;;;;;5090248;28;20123;-79
2023/10/23 05:17:39;;;;;;;336.40;65.70;;;;;;;;;;5082357;28;20528;-79
2023/10/23 05:20:05;;;;;;;398.63;65.70;;;;;;;;;;5047530;28;20058;-80
2023/10/23 05:22:32;;;;;;;422.17;67.65;;;;;;;;;;5053871;28;20036;-80
2023/10/23 05:24:58;;;;;;;502.35;70.43;;;;;;;;;;5070924;28;20193;-80
2023/10/23 05:27:24;;;;;;;386.83;64.90;;;;;;;;;;5082908;28;20024;-79
2023/10/23 05:29:50;;;;;;;475.23;72.10;;;;;;;;;;5071884;28;20036;-80
2023/10/23 05:32:16;;;;;;;460.63;71.63;;;;;;;;;;5053811;28;20056;-82
2023/10/23 05:34:46;;;;;;;516.17;74.40;;;;;;;;;;5053376;28;20111;-80
2023/10/23 05:37:13;;;;;;;506.88;76.53;;;;;;;;;;5086210;28;20714;-78
2023/10/23 05:39:39;;;;;;;553.50;74.50;;;;;;;;;;5069510;28;20570;-78
2023/10/23 05:42:05;;;;;;;455.10;68.95;;;;;;;;;;5083763;28;20420;-78
2023/10/23 05:44:31;;;;;;;491.90;75.10;;;;;;;;;;5066060;28;20050;-78
2023/10/23 05:46:57;;;;;;;431.17;66.45;;;;;;;;;;5084702;28;20378;-78
2023/10/23 05:49:23;;;;;;;313.90;64.35;;;;;;;;;;5066692;28;20035;-78
2023/10/23 05:51:50;;;;;;;510.75;73.32;;;;;;;;;;5069202;28;20024;-77
2023/10/23 05:54:16;;;;;;;640.67;81.47;;;;;;;;;;5066157;28;20111;-78
2023/10/23 05:56:46;;;;;;;472.63;71.90;;;;;;;;;;5071429;28;20079;-78
2023/10/23 05:59:13;;;;;;;428.67;70.80;;;;;;;;;;5092381;28;20604;-78
2023/10/23 06:01:39;;;;;;;421.65;68.15;;;;;;;;;;5068775;28;20398;-80
2023/10/23 06:04:05;;;;;;;504.95;74.78;;;;;;;;;;5089472;28;20036;-78
2023/10/23 06:06:31;;;;;;;642.97;83.55;;;;;;;;;;5070795;28;20463;-78
2023/10/23 06:08:57;;;;;;;358.80;68.40;;;;;;;;;;5056270;28;20092;-78
2023/10/23 06:11:24;;;;;;;454.75;71.22;;;;;;;;;;5086588;28;20039;-79
2023/10/23 06:13:50;;;;;;;632.47;79.07;;;;;;;;;;5077037;28;20034;-79
2023/10/23 06:16:16;;;;;;;554.72;76.35;;;;;;;;;;5063115;28;20029;-78
2023/10/23 06:18:42;;;;;;;444.60;65.32;;;;;;;;;;5088768;28;20024;-79
2023/10/23 06:21:08;;;;;;;458.30;66.82;;;;;;;;;;5063091;28;20043;-78
2023/10/23 06:23:36;;;;;;;366.98;62.08;;;;;;;;;;5064711;28;20032;-77
2023/10/23 06:26:03;;;;;;;279.80;52.83;;;;;;;;;;5086756;28;20048;-77
2023/10/23 06:28:29;;;;;;;554.65;68.72;;;;;;;;;;5063501;28;20028;-77
2023/10/23 06:30:56;;;;;;;411.88;61.30;;;;;;;;;;5076014;28;20070;-77
2023/10/23 06:33:23;;;;;;;587.70;71.75;;;;;;;;;;5085319;28;20109;-76
2023/10/23 06:36:03;;;;;;;456.38;62.67;;;;;;;;;;5066948;28;20398;-77
2023/10/23 06:38:29;;;;;;;585.63;70.00;;;;;;;;;;5085562;28;20039;-78
2023/10/23 06:40:55;;;;;;;657.28;84.07;;;;;;;;;;5094260;28;20024;-78
2023/10/23 06:43:21;;;;;;;568.85;83.35;;;;;;;;;;5068021;28;20032;-77
2023/10/23 06:45:48;;;;;;;506.40;67.63;;;;;;;;;;5072269;28;20048;-77
2023/10/23 06:48:15;;;;;;;622.17;82.53;;;;;;;;;;5092244;28;20028;-77
2023/10/23 06:50:47;;;;;;;635.97;72.25;;;;;;;;;;5088860;28;20051;-78
2023/10/23 06:53:17;;;;;;;737.90;71.50;;;;;;;;;;5071960;28;20523;-79
2023/10/23 06:55:47;;;;;;;388.58;55.70;;;;;;;;;;5050025;28;20024;-77
2023/10/23 06:58:13;;;;;;;737.78;71.00;;;;;;;;;;5090702;28;20459;-78
2023/10/23 07:00:40;;;;;;;602.35;63.72;;;;;;;;;;5056522;28;20040;-78
2023/10/23 07:03:06;;;;;;;587.35;64.97;;;;;;;;;;5080573;28;20135;-79
2023/10/23 07:05:32;;;;;;;625.33;65.57;;;;;;;;;;5071189;28;20388;-79
2023/10/23 07:07:59;;;;;;;659.25;68.32;;;;;;;;;;5089222;28;20056;-79
2023/10/23 07:10:26;;;;;;;620.15;64.55;;;;;;;;;;5090245;28;20032;-77
2023/10/23 07:12:54;;;;;;;438.27;57.30;;;;;;;;;;5089370;28;20389;-78
2023/10/23 07:15:20;;;;;;;774.92;73.20;;;;;;;;;;5082653;28;20069;-78
2023/10/23 07:17:46;;;;;;;717.17;70.47;;;;;;;;;;5088280;28;20166;-77
2023/10/23 07:20:16;;;;;;;422.30;59.58;;;;;;;;;;5070849;28;20484;-77
2023/10/23 07:22:43;;;;;;;499.52;58.97;;;;;;;;;;5089727;28;20036;-77
2023/10/23 07:25:09;;;;;;;546.13;64.95;;;;;;;;;;5087084;28;20480;-78
2023/10/23 07:27:35;;;;;;;433.65;68.57;;;;;;;;;;5071391;28;20032;-78
2023/10/23 07:30:03;;;;;;;512.63;64.57;;;;;;;;;;5088063;28;20039;-84
2023/10/23 07:32:29;;;;;;;422.27;63.35;;;;;;;;;;5070102;28;20369;-77
2023/10/23 07:34:55;;;;;;;378.90;59.08;;;;;;;;;;5089943;28;20032;-79
2023/10/23 07:37:22;;;;;;;442.60;56.03;;;;;;;;;;5089472;28;20024;-76
2023/10/23 07:39:49;;;;;;;369.80;53.22;;;;;;;;;;5090354;28;20040;-76
2023/10/23 07:42:15;;;;;;;548.50;64.18;;;;;;;;;;5087616;28;20039;-77
2023/10/23 07:44:44;;;;;;;530.75;64.03;;;;;;;;;;5080368;28;20123;-76
2023/10/23 07:47:10;;;;;;;658.63;64.88;;;;;;;;;;5070906;28;20040;-76
2023/10/23 07:49:36;;;;;;;404.45;55.78;;;;;;;;;;5067587;28;20032;-77
2023/10/23 07:52:03;;;;;;;709.28;71.90;;;;;;;;;;5057231;28;20029;-77
2023/10/23 07:54:33;;;;;;;487.10;59.83;;;;;;;;;;5077453;28;20044;-77
2023/10/23 07:56:59;;;;;;;448.25;57.33;;;;;;;;;;5086379;28;20036;-77
2023/10/23 07:59:26;;;;;;;484.25;60.13;;;;;;;;;;5061506;28;20404;-77
2023/10/23 08:01:52;;;;;;;404.77;58.53;;;;;;;;;;5063510;28;20546;-79
2023/10/23 08:04:21;;;;;;;429.45;57.72;;;;;;;;;;5088548;28;20062;-78
2023/10/23 08:06:47;;;;;;;850.05;76.90;;;;;;;;;;5070306;28;20035;-78
2023/10/23 08:09:14;;;;;;;547.10;65.22;;;;;;;;;;5069681;28;20082;-78
2023/10/23 08:11:40;;;;;;;702.40;69.88;;;;;;;;;;5087213;28;20036;-77
2023/10/23 08:14:06;;;;;;;433.67;57.72;;;;;;;;;;5092462;28;20401;-77
2023/10/23 08:16:33;;;;;;;248.75;51.22;;;;;;;;;;5074372;28;20092;-77
2023/10/23 08:18:59;;;;;;;642.92;68.15;;;;;;;;;;5092515;28;20032;-77
2023/10/23 08:21:27;;;;;;;945.03;84.20;;;;;;;;;;5029548;28;20507;-78
2023/10/23 08:23:54;;;;;;;732.75;72.20;;;;;;;;;;5089672;28;20036;-77
2023/10/23 08:26:21;;;;;;;643.78;66.90;;;;;;;;;;5090870;28;20401;-77
2023/10/23 08:28:47;;;;;;;372.25;52.72;;;;;;;;;;5075108;28;20319;-77
2023/10/23 08:31:13;;;;;;;653.30;69.18;;;;;;;;;;5078614;28;20027;-77
2023/10/23 08:33:40;;;;;;;407.00;54.30;;;;;;;;;;5092626;28;20109;-78
2023/10/23 08:36:06;;;;;;;530.50;61.55;;;;;;;;;;5073886;28;20047;-78
2023/10/23 08:38:33;;;;;;;370.80;53.78;;;;;;;;;;5090810;28;20549;-78
2023/10/23 08:41:03;;;;;;;474.98;58.22;;;;;;;;;;5091926;28;20028;-78
2023/10/23 08:43:29;;;;;;;477.75;57.70;;;;;;;;;;5091421;28;20436;-78
2023/10/23 08:45:56;;;;;;;384.33;53.90;;;;;;;;;;5073573;28;20426;-77
2023/10/23 08:48:22;;;;;;;482.55;55.25;;;;;;;;;;5092174;28;20020;-77
2023/10/23 08:50:48;;;;;;;420.17;56.65;;;;;;;;;;5071293;28;20040;-77
2023/10/23 08:53:15;;;;;;;434.65;56.00;;;;;;;;;;5090287;28;20039;-78
2023/10/23 08:55:42;;;;;;;302.48;51.67;;;;;;;;;;5073298;28;20389;-79
2023/10/23 08:58:09;;;;;;;177.23;47.28;;;;;;;;;;5090627;28;20404;-78
2023/10/23 09:00:35;;;;;;;195.98;49.20;;;;;;;;;;5090364;28;20042;-78
2023/10/23 09:03:02;;;;;;;402.80;56.08;;;;;;;;;;5072550;28;20036;-77
2023/10/23 09:05:28;;;;;;;238.43;48.70;;;;;;;;;;5072438;28;20032;-77
2023/10/23 09:07:55;;;;;;;280.02;50.60;;;;;;;;;;5073101;28;20130;-77
2023/10/23 09:10:21;;;;;;;257.88;49.55;;;;;;;;;;5091103;28;20373;-77
2023/10/23 09:12:47;;;;;;;270.80;50.40;;;;;;;;;;5091902;28;20071;-80
2023/10/23 09:15:24;;;;;;;190.18;48.97;;;;;;;;;;5073114;28;20142;-78
2023/10/23 09:17:50;;;;;;;166.13;48.25;;;;;;;;;;5062395;28;20127;-78
2023/10/23 09:20:19;;;;;;;166.77;48.15;;;;;;;;;;5082189;28;21100;-77
2023/10/23 09:22:49;;;;;;;177.05;50.03;;;;;;;;;;5072916;28;20422;-77
2023/10/23 09:25:15;;;;;;;156.88;46.28;;;;;;;;;;5064078;28;20429;-77
2023/10/23 09:27:41;;;;;;;158.70;47.25;;;;;;;;;;5090161;28;20020;-77
2023/10/23 09:30:08;;;;;;;137.48;44.13;;;;;;;;;;5089955;28;20069;-77
2023/10/23 09:32:38;;;;;;;141.15;45.60;;;;;;;;;;5073059;28;20089;-79
2023/10/23 09:35:08;;;;;;;124.20;43.63;;;;;;;;;;5071402;28;20489;-79
2023/10/23 09:37:40;;;;;;;131.15;43.92;;;;;;;;;;5076467;28;20496;-78
2023/10/23 09:40:16;;;;;;;131.23;44.00;;;;;;;;;;5090447;28;20396;-77
2023/10/23 09:42:42;;;;;;;132.85;42.80;;;;;;;;;;5090496;28;20038;-78
2023/10/23 09:45:09;;;;;;;133.50;44.38;;;;;;;;;;5091261;28;20032;-77
2023/10/23 09:47:35;;;;;;;136.43;44.15;;;;;;;;;;5071156;28;20500;-78
2023/10/23 09:50:03;;;;;;;121.57;45.30;;;;;;;;;;5063664;28;20504;-79
2023/10/23 09:52:32;;;;;;;126.53;45.75;;;;;;;;;;5090474;28;20106;-78
2023/10/23 09:55:03;;;;;;;119.00;45.92;;;;;;;;;;5070652;28;20036;-78
2023/10/23 09:57:45;;;;;;;118.63;48.00;;;;;;;;;;5073019;28;20032;-78
2023/10/23 10:00:15;;;;;;;118.30;45.35;;;;;;;;;;5074010;28;20443;-77
2023/10/23 10:02:45;;;;;;;102.65;45.25;;;;;;;;;;5099243;28;20024;-79
2023/10/23 10:05:15;;;;;;;99.10;41.42;;;;;;;;;;5099307;28;20385;-79
2023/10/23 10:07:54;;;;;;;110.30;43.37;;;;;;;;;;5070176;28;20068;-78
2023/10/23 10:10:20;;;;;;;97.90;42.90;;;;;;;;;;5051894;28;20025;-78
2023/10/23 10:12:47;;;;;;;91.13;43.58;;;;;;;;;;5069993;28;20036;-77
2023/10/23 10:15:14;;;;;;;91.68;42.13;;;;;;;;;;5069115;28;20041;-78
2023/10/23 10:17:40;;;;;;;101.13;44.40;;;;;;;;;;5069354;28;20028;-78
2023/10/23 10:20:10;;;;;;;82.00;38.22;;;;;;;;;;5069797;28;20034;-78
2023/10/23 10:22:38;;;;;;;72.13;34.25;;;;;;;;;;5057649;28;20044;-78
2023/10/23 10:25:05;;;;;;;72.38;33.25;;;;;;;;;;5069398;28;20421;-77
2023/10/23 10:27:31;;;;;;;62.67;31.48;;;;;;;;;;5069708;28;20454;-79
2023/10/23 10:30:05;;;;;;;61.45;32.53;;;;;;;;;;5063427;28;20797;-80
2023/10/23 10:32:32;;;;;;;63.13;31.35;;;;;;;;;;5069264;28;20112;-77
2023/10/23 10:35:01;;;;;;;62.22;30.30;;;;;;;;;;5068044;28;20159;-79
2023/10/23 10:37:30;;;;;;;47.47;26.15;;;;;;;;;;5068753;28;20426;-78
2023/10/23 10:39:56;;;;;;;53.40;28.52;;;;;;;;;;5068354;28;20090;-77
2023/10/23 10:42:23;;;;;;;52.28;28.77;;;;;;;;;;5069289;28;20051;-78
2023/10/23 10:44:55;;;;;;;50.70;27.90;;;;;;;;;;5069009;28;20119;-78
2023/10/23 10:47:21;;;;;;;49.25;27.30;;;;;;;;;;5069216;28;20028;-79
2023/10/23 10:49:48;;;;;;;51.40;26.67;;;;;;;;;;5064345;28;20378;-79
2023/10/23 10:52:35;;;;;;;49.55;26.30;;;;;;;;;;5049698;28;20021;-80
2023/10/23 10:55:02;;;;;;;52.90;28.27;;;;;;;;;;5050061;28;20029;-80
2023/10/23 10:57:28;;;;;;;48.20;24.90;;;;;;;;;;5056170;28;20394;-78
2023/10/23 10:59:55;;;;;;;44.35;25.20;;;;;;;;;;5059604;28;20025;-80
2023/10/23 11:02:22;;;;;;;50.50;25.42;;;;;;;;;;5056491;28;20416;-79
2023/10/23 11:04:48;;;;;;;49.83;23.85;;;;;;;;;;5067749;28;20050;-80
2023/10/23 11:07:14;;;;;;;44.83;24.38;;;;;;;;;;5074274;28;20044;-79
2023/10/23 11:09:41;;;;;;;39.60;22.92;;;;;;;;;;5051582;28;20043;-79
2023/10/23 11:12:08;;;;;;;33.90;21.25;;;;;;;;;;5067781;28;20557;-78
2023/10/23 11:14:34;;;;;;;37.15;22.02;;;;;;;;;;5071271;28;20357;-79
2023/10/23 11:17:00;;;;;;;34.40;20.77;;;;;;;;;;5071135;28;20484;-79
2023/10/23 11:19:26;;;;;;;38.78;21.52;;;;;;;;;;5055221;28;20028;-79
2023/10/23 11:22:06;;;;;;;43.38;21.85;;;;;;;;;;5088487;28;20060;-80
2023/10/23 11:24:32;;;;;;;33.80;19.42;;;;;;;;;;5089002;28;20028;-80
2023/10/23 11:26:58;;;;;;;34.80;19.40;;;;;;;;;;5070706;28;20055;-79
2023/10/23 11:29:24;;;;;;;36.67;19.73;;;;;;;;;;5089299;28;20162;-79
2023/10/23 11:31:52;;;;;;;31.45;19.05;;;;;;;;;;5070501;28;20378;-80
2023/10/23 11:34:18;;;;;;;30.75;18.45;;;;;;;;;;5071149;28;20028;-78
2023/10/23 11:36:49;;;;;;;35.08;20.63;;;;;;;;;;5080829;28;20103;-80
2023/10/23 11:39:18;;;;;;;33.85;20.30;;;;;;;;;;5087132;28;20044;-80
2023/10/23 11:41:56;;;;;;;33.92;20.88;;;;;;;;;;5093146;28;20031;-79
2023/10/23 11:44:22;;;;;;;34.10;21.60;;;;;;;;;;5098718;28;20020;-78
2023/10/23 11:46:49;;;;;;;38.65;22.65;;;;;;;;;;5061621;28;20029;-77
2023/10/23 11:49:19;;;;;;;37.58;21.17;;;;;;;;;;5071032;28;20025;-77
2023/10/23 11:51:45;;;;;;;39.38;21.63;;;;;;;;;;5082585;28;20554;-80
2023/10/23 11:54:11;;;;;;;34.83;20.30;;;;;;;;;;5088830;28;20432;-77
2023/10/23 11:56:39;;;;;;;37.03;20.75;;;;;;;;;;5066704;28;20024;-78
2023/10/23 11:59:05;;;;;;;37.22;20.95;;;;;;;;;;5091975;28;20030;-77
2023/10/23 12:01:31;;;;;;;33.03;20.58;;;;;;;;;;5085085;28;20046;-78
2023/10/23 12:03:57;;;;;;;33.17;20.08;;;;;;;;;;5089648;28;20438;-78
2023/10/23 12:06:23;;;;;;;40.65;20.13;;;;;;;;;;5101418;28;20032;-78
2023/10/23 12:08:49;;;;;;;38.45;21.20;;;;;;;;;;5074785;28;20202;-78
2023/10/23 12:11:15;;;;;;;34.08;18.75;;;;;;;;;;5074619;28;20575;-78
2023/10/23 12:13:42;;;;;;;31.42;18.30;;;;;;;;;;5074607;28;20039;-78
2023/10/23 12:16:09;;;;;;;33.70;18.10;;;;;;;;;;5093384;28;20066;-77
2023/10/23 12:18:38;;;;;;;30.70;17.42;;;;;;;;;;5093076;28;20036;-77
2023/10/23 12:21:05;;;;;;;33.03;17.33;;;;;;;;;;5091886;28;20497;-78
2023/10/23 12:23:31;;;;;;;29.15;17.17;;;;;;;;;;5082085;28;20059;-78
2023/10/23 12:25:57;;;;;;;30.45;17.15;;;;;;;;;;5063276;28;20036;-79
2023/10/23 12:28:23;;;;;;;31.33;16.80;;;;;;;;;;5084630;28;20645;-78
2023/10/23 12:30:49;;;;;;;32.35;18.60;;;;;;;;;;5072288;28;20028;-80
2023/10/23 12:33:15;;;;;;;28.83;16.92;;;;;;;;;;5087315;28;20455;-79
2023/10/23 12:35:41;;;;;;;36.50;17.60;;;;;;;;;;5084350;28;20601;-78
2023/10/23 12:38:12;;;;;;;31.25;17.50;;;;;;;;;;5069210;28;20433;-77
2023/10/23 12:40:39;;;;;;;;;;;;;;;;;;5088679;28;20750;-77
2023/10/23 12:43:05;;;;;;;26.65;15.40;;;;;;;;;;5091936;28;20315;-77
2023/10/23 12:45:31;;;;;;;31.08;15.90;;;;;;;;;;5074329;28;20060;-78
2023/10/23 12:47:57;;;;;;;31.73;16.65;;;;;;;;;;5090767;28;20062;-82
2023/10/23 12:50:24;;;;;;;30.98;17.25;;;;;;;;;;5071282;28;20134;-77
2023/10/23 12:52:50;;;;;;;36.63;16.23;;;;;;;;;;5090516;28;20097;-78
2023/10/23 12:55:16;;;;;;;35.20;16.00;;;;;;;;;;5073913;28;20039;-78
2023/10/23 12:57:42;;;;;;;27.33;14.85;;;;;;;;;;5085805;28;20031;-78
2023/10/23 13:00:09;;;;;;;24.75;15.70;;;;;;;;;;5089632;28;20408;-81
2023/10/23 13:02:35;;;;;;;29.45;15.43;;;;;;;;;;5070841;28;20032;-80
2023/10/23 13:05:02;;;;;;;29.77;15.07;;;;;;;;;;5092313;28;20036;-80
2023/10/23 13:07:28;;;;;;;22.92;13.80;;;;;;;;;;5069460;28;20427;-79
2023/10/23 13:09:54;;;;;;;23.95;13.25;;;;;;;;;;5051024;28;20102;-80
2023/10/23 13:12:20;;;;;;;33.15;13.98;;;;;;;;;;5083791;28;20086;-80
2023/10/23 13:14:47;;;;;;;24.20;14.18;;;;;;;;;;5079807;28;20116;-79
2023/10/23 13:17:13;;;;;;;32.92;14.93;;;;;;;;;;5076452;28;20032;-78
2023/10/23 13:19:39;;;;;;;24.25;13.95;;;;;;;;;;5063517;28;20411;-79
2023/10/23 13:22:05;;;;;;;29.45;15.07;;;;;;;;;;5073340;28;20119;-78
2023/10/23 13:24:31;;;;;;;28.52;15.18;;;;;;;;;;5072749;28;20115;-79
2023/10/23 13:26:57;;;;;;;26.88;15.30;;;;;;;;;;5053209;28;20027;-79
2023/10/23 13:29:23;;;;;;;29.98;16.40;;;;;;;;;;5072239;28;20067;-80
2023/10/23 13:31:49;;;;;;;34.25;17.83;;;;;;;;;;5073369;28;20480;-80
2023/10/23 13:34:16;;;;;;;37.85;17.58;;;;;;;;;;5090453;28;20214;-81
2023/10/23 13:36:42;;;;;;;46.00;19.08;;;;;;;;;;5047506;28;20035;-79
2023/10/23 13:39:08;;;;;;;33.40;18.35;;;;;;;;;;5086357;28;20097;-82
2023/10/23 13:41:35;;;;;;;32.88;18.10;;;;;;;;;;5051950;28;20036;-82
2023/10/23 13:44:01;;;;;;;27.92;18.98;;;;;;;;;;5085448;28;20047;-78
2023/10/23 13:46:27;;;;;;;33.95;18.88;;;;;;;;;;5072472;28;20058;-79
2023/10/23 13:48:53;;;;;;;39.58;19.10;;;;;;;;;;5055488;28;20029;-79
2023/10/23 13:51:19;;;;;;;35.42;20.17;;;;;;;;;;5085875;28;20028;-80
2023/10/23 13:53:45;;;;;;;41.15;20.27;;;;;;;;;;5088763;28;20082;-79
2023/10/23 13:56:12;;;;;;;38.15;19.35;;;;;;;;;;5082811;28;20036;-80
2023/10/23 13:58:38;;;;;;;36.13;20.95;;;;;;;;;;5049884;28;20504;-81
2023/10/23 14:01:04;;;;;;;32.55;20.40;;;;;;;;;;5061658;28;20028;-79
2023/10/23 14:03:30;;;;;;;40.22;21.20;;;;;;;;;;5060559;28;20028;-79
2023/10/23 14:05:56;;;;;;;40.60;21.60;;;;;;;;;;5081425;28;20054;-80
2023/10/23 14:08:22;;;;;;;41.40;21.13;;;;;;;;;;5087856;28;20420;-80